Frederika, Iowa
Current Conditions -  °F | °C
As of 10:15 AM on Wednesday 26 Nov 2014 (Local Time) from KCCY Reporting Station
Broken Clouds Broken Clouds  
Wind Chill: 15°   Ceiling: 7000
Heat Index: 27°   Visibility: 10mi
Dew Point: 23°   Wind: 14mph
Humidity: 86%   Direction: 90°E
Pressure: 30.04"   Gusts: NA
Location:  42.88°N, 92.31°W
Report Text: KCCY 261615Z AUTO 09012KT 10SM FEW060 BKN070 M03/M05 A3004 RMK AO2
Loading
Personal Weather Stations






























Interactive Weather Map New forecast layout! Learn more

10-Day Weather Forecast

Advertisements
Track Severe Weather on mobile